createdAt,value
2018-12-19T00:07:51.475Z,6.80
2018-12-19T00:10:17.997Z,6.70
2018-12-19T00:12:44.504Z,6.70
2018-12-19T00:15:10.969Z,6.70
2018-12-19T00:20:05.213Z,6.70
2018-12-19T00:22:31.602Z,6.60
2018-12-19T00:24:58.049Z,6.60
2018-12-19T00:27:25.492Z,6.60
2018-12-19T00:29:51.999Z,6.60
2018-12-19T00:32:18.462Z,6.60
2018-12-19T00:34:44.919Z,6.60
2018-12-19T00:37:11.354Z,6.50
2018-12-19T00:46:58.232Z,6.60
2018-12-19T00:49:24.725Z,6.60
2018-12-19T00:51:51.234Z,6.60
2018-12-19T00:54:17.808Z,6.60
2018-12-19T00:56:44.515Z,6.60
2018-12-19T00:59:10.982Z,6.50
2018-12-19T01:01:37.488Z,6.50
2018-12-19T01:04:03.888Z,6.50
2018-12-19T01:08:57.220Z,6.50
2018-12-19T01:11:23.675Z,6.50
2018-12-19T01:13:50.079Z,6.50
2018-12-19T01:16:16.509Z,6.50
2018-12-19T01:18:43.003Z,6.50
2018-12-19T01:23:36.246Z,6.50
2018-12-19T01:26:02.900Z,6.50
2018-12-19T01:28:29.303Z,6.50
2018-12-19T01:30:55.978Z,6.50
2018-12-19T01:33:22.397Z,6.60
2018-12-19T01:35:48.912Z,6.60
2018-12-19T01:38:15.383Z,6.50
2018-12-19T01:45:35.431Z,6.50
2018-12-19T01:48:02.326Z,6.40
2018-12-19T01:50:28.860Z,6.40
2018-12-19T01:52:55.383Z,6.40
2018-12-19T01:55:21.865Z,6.40
2018-12-19T01:57:48.398Z,6.40
2018-12-19T02:00:15.028Z,6.40
2018-12-19T02:05:08.298Z,6.40
2018-12-19T02:07:34.701Z,6.40
2018-12-19T02:17:21.659Z,6.40
2018-12-19T02:19:48.086Z,6.40
2018-12-19T02:22:14.536Z,6.50
2018-12-19T02:24:41.018Z,6.50
2018-12-19T02:27:07.480Z,6.50
2018-12-19T02:29:33.946Z,6.50
2018-12-19T02:34:30.169Z,6.50
2018-12-19T02:39:23.427Z,6.40
2018-12-19T02:41:49.877Z,6.40
2018-12-19T02:44:16.366Z,6.40
2018-12-19T02:46:42.790Z,6.40
2018-12-19T02:49:09.220Z,6.30
2018-12-19T02:51:35.692Z,6.20
2018-12-19T02:58:55.812Z,5.90
2018-12-19T03:01:22.259Z,5.80
2018-12-19T03:03:48.710Z,5.70
2018-12-19T03:06:15.173Z,5.70
2018-12-19T03:08:41.623Z,5.70
2018-12-19T03:13:35.593Z,5.60
2018-12-19T03:16:02.211Z,5.60
2018-12-19T03:18:28.599Z,5.50
2018-12-19T03:20:55.007Z,5.60
2018-12-19T03:25:48.217Z,5.60
2018-12-19T03:28:14.701Z,5.50
2018-12-19T03:30:41.392Z,5.60
2018-12-19T03:33:07.883Z,5.60
2018-12-19T03:35:34.415Z,5.50
2018-12-19T03:38:01.831Z,5.50
2018-12-19T03:42:55.174Z,5.50
2018-12-19T03:45:21.631Z,5.50
2018-12-19T03:47:48.014Z,5.50
2018-12-19T03:50:14.734Z,5.50
2018-12-19T03:52:41.268Z,5.50
2018-12-19T03:55:07.706Z,5.50
2018-12-19T03:57:34.468Z,5.60
2018-12-19T04:00:00.927Z,5.60
2018-12-19T04:02:27.441Z,5.60
2018-12-19T04:04:53.898Z,5.70
2018-12-19T04:12:14.059Z,5.80
2018-12-19T04:14:40.449Z,5.80
2018-12-19T04:17:07.075Z,5.90
2018-12-19T04:19:33.560Z,5.90
2018-12-19T04:22:00.005Z,5.90
2018-12-19T04:24:26.461Z,5.90
2018-12-19T04:31:46.641Z,6.00
2018-12-19T04:34:13.031Z,6.10
2018-12-19T04:39:06.392Z,6.10
2018-12-19T04:43:59.763Z,6.10
2018-12-19T04:46:26.238Z,6.10
2018-12-19T04:48:52.821Z,6.20
2018-12-19T04:58:39.889Z,6.30
2018-12-19T05:01:06.351Z,6.40
2018-12-19T05:03:32.748Z,6.40
2018-12-19T05:05:59.250Z,6.40
2018-12-19T05:08:25.686Z,6.40
2018-12-19T05:10:52.101Z,6.50
2018-12-19T05:13:18.595Z,6.50
2018-12-19T05:15:45.235Z,6.50
2018-12-19T05:18:11.788Z,6.60
2018-12-19T05:20:38.226Z,6.60
2018-12-19T05:25:32.379Z,6.60
2018-12-19T05:30:25.634Z,6.60
2018-12-19T05:35:18.915Z,6.60
2018-12-19T05:37:45.442Z,6.50
2018-12-19T05:42:40.868Z,6.50
2018-12-19T05:45:07.524Z,6.40
2018-12-19T05:47:34.193Z,6.40
2018-12-19T05:50:00.830Z,6.40
2018-12-19T05:52:27.534Z,6.30
2018-12-19T05:54:54.100Z,6.30
2018-12-19T05:57:20.887Z,6.30
2018-12-19T05:59:47.407Z,6.30
2018-12-19T06:02:13.866Z,6.30
2018-12-19T06:04:40.294Z,6.30
2018-12-19T06:07:08.117Z,6.30
2018-12-19T06:09:34.527Z,6.30
2018-12-19T06:12:00.985Z,6.30
2018-12-19T06:19:21.154Z,6.20
2018-12-19T06:24:14.501Z,6.20
2018-12-19T06:26:40.990Z,6.20
2018-12-19T06:29:07.655Z,6.10
2018-12-19T06:31:34.247Z,6.10
2018-12-19T06:34:00.928Z,6.10
2018-12-19T06:36:27.626Z,6.10
2018-12-19T06:41:21.193Z,6.00
2018-12-19T06:43:47.805Z,6.00
2018-12-19T06:46:14.307Z,6.10
2018-12-19T06:48:40.750Z,6.10
2018-12-19T06:51:07.209Z,6.10
2018-12-19T06:53:33.703Z,6.10
2018-12-19T06:56:00.189Z,6.10
2018-12-19T06:58:26.642Z,6.10
2018-12-19T07:00:53.029Z,6.10
2018-12-19T07:03:19.439Z,6.10
2018-12-19T07:08:12.776Z,6.10
2018-12-19T07:10:39.404Z,6.10
2018-12-19T07:13:05.958Z,6.10
2018-12-19T07:17:59.495Z,6.10
2018-12-19T07:22:52.786Z,6.20
2018-12-19T07:25:19.276Z,6.20
2018-12-19T07:27:45.794Z,6.20
2018-12-19T07:30:12.214Z,6.20
2018-12-19T07:32:38.625Z,6.30
2018-12-19T07:35:05.090Z,6.30
2018-12-19T07:37:31.512Z,6.20
2018-12-19T07:39:57.952Z,6.30
2018-12-19T07:42:24.517Z,6.30
2018-12-19T07:44:51.236Z,6.30
2018-12-19T07:47:17.747Z,6.30
2018-12-19T07:49:44.209Z,6.40
2018-12-19T07:52:10.641Z,6.40
2018-12-19T07:54:36.986Z,6.40
2018-12-19T07:59:30.361Z,6.40
2018-12-19T08:01:57.341Z,6.40
2018-12-19T08:04:24.164Z,6.50
2018-12-19T08:06:50.609Z,6.50
2018-12-19T08:11:44.396Z,6.60
2018-12-19T08:14:10.878Z,6.60
2018-12-19T08:16:37.401Z,6.60
2018-12-19T08:19:04.046Z,6.70
2018-12-19T08:23:57.344Z,6.70
2018-12-19T08:26:23.805Z,6.70
2018-12-19T08:28:50.458Z,6.80
2018-12-19T08:31:17.033Z,6.80
2018-12-19T08:33:43.450Z,6.80
2018-12-19T08:36:09.867Z,6.90
2018-12-19T08:38:36.331Z,6.90
2018-12-19T08:41:02.867Z,7.00
2018-12-19T08:43:29.337Z,7.00
2018-12-19T08:48:23.213Z,7.10
2018-12-19T08:50:49.710Z,7.10
2018-12-19T08:58:10.218Z,7.20
2018-12-19T09:00:36.652Z,7.20
2018-12-19T09:03:03.121Z,7.20
2018-12-19T09:05:29.524Z,7.30
2018-12-19T09:10:23.078Z,7.40
2018-12-19T09:12:49.566Z,7.30
2018-12-19T09:15:18.052Z,7.40
2018-12-19T09:17:44.503Z,7.50
2018-12-19T09:20:11.218Z,7.50
2018-12-19T09:22:37.690Z,7.50
2018-12-19T09:25:04.344Z,7.60
2018-12-19T09:27:30.760Z,7.60
2018-12-19T09:29:57.172Z,7.50
2018-12-19T09:32:23.631Z,7.60
2018-12-19T09:37:17.930Z,7.70
2018-12-19T09:42:12.670Z,7.70
2018-12-19T09:44:39.133Z,7.80
2018-12-19T09:47:05.575Z,7.80
2018-12-19T09:49:32.033Z,7.90
2018-12-19T09:51:58.662Z,8.00
2018-12-19T09:54:25.205Z,8.00
2018-12-19T09:56:51.722Z,8.00
2018-12-19T09:59:18.183Z,8.00
2018-12-19T10:04:11.523Z,8.10
2018-12-19T10:06:37.937Z,8.20
2018-12-19T10:09:07.602Z,8.30
2018-12-19T10:11:34.709Z,8.40
2018-12-19T10:14:01.230Z,8.50
2018-12-19T10:16:27.695Z,8.70
2018-12-19T10:18:54.223Z,9.40
2018-12-19T10:21:21.791Z,10.30
2018-12-19T10:26:15.485Z,11.00
2018-12-19T10:28:42.081Z,11.40
2018-12-19T10:31:08.542Z,11.60
2018-12-19T10:33:35.229Z,11.60
2018-12-19T10:36:01.714Z,12.30
2018-12-19T10:43:21.952Z,14.40
2018-12-19T10:45:48.357Z,15.10
2018-12-19T10:48:14.846Z,15.30
2018-12-19T10:53:08.075Z,15.00
2018-12-19T10:55:34.536Z,14.80
2018-12-19T10:58:01.097Z,14.60
2018-12-19T11:00:33.536Z,14.50
2018-12-19T11:03:01.152Z,14.50
2018-12-19T11:05:27.583Z,14.60
2018-12-19T11:10:20.794Z,12.70
2018-12-19T11:12:47.356Z,11.80
2018-12-19T11:15:13.944Z,11.20
2018-12-19T11:17:40.396Z,10.70
2018-12-19T11:20:08.626Z,10.20
2018-12-19T11:25:03.231Z,10.00
2018-12-19T11:27:29.702Z,9.90
2018-12-19T11:29:56.095Z,9.80
2018-12-19T11:32:22.504Z,9.90
2018-12-19T11:34:48.953Z,9.80
2018-12-19T11:37:15.426Z,9.80
2018-12-19T11:39:41.918Z,9.70
2018-12-19T11:42:08.378Z,9.60
2018-12-19T11:44:34.825Z,9.60
2018-12-19T11:47:01.263Z,9.50
2018-12-19T11:49:27.696Z,9.60
2018-12-19T11:54:21.189Z,9.60
2018-12-19T12:04:08.423Z,9.50
2018-12-19T12:06:34.899Z,9.60
2018-12-19T12:09:01.546Z,9.70
2018-12-19T12:11:28.014Z,9.70
2018-12-19T12:13:54.542Z,9.70
2018-12-19T12:16:20.948Z,9.70
2018-12-19T12:18:47.398Z,9.60
2018-12-19T12:21:13.895Z,9.70
2018-12-19T12:26:09.194Z,9.60
2018-12-19T12:31:02.616Z,9.60
2018-12-19T12:33:29.071Z,9.60
2018-12-19T12:35:55.761Z,9.60
2018-12-19T12:38:22.346Z,9.60
2018-12-19T12:40:49.031Z,9.60
2018-12-19T12:43:15.470Z,9.70
2018-12-19T12:48:08.854Z,9.70
2018-12-19T12:50:35.312Z,9.70
2018-12-19T12:53:02.037Z,9.70
2018-12-19T12:55:28.467Z,9.60
2018-12-19T12:57:54.967Z,9.60
2018-12-19T13:00:21.435Z,9.60
2018-12-19T13:02:48.198Z,9.70
2018-12-19T13:05:15.191Z,9.70
2018-12-19T13:10:10.664Z,9.70
2018-12-19T13:12:37.118Z,9.70
2018-12-19T13:15:05.163Z,9.70
2018-12-19T13:19:58.546Z,9.70
2018-12-19T13:22:25.184Z,9.70
2018-12-19T13:27:18.510Z,9.70
2018-12-19T13:32:12.168Z,9.70
2018-12-19T13:34:38.637Z,9.70
2018-12-19T13:37:05.187Z,9.80
2018-12-19T13:41:58.646Z,9.80
2018-12-19T13:46:52.071Z,9.80
2018-12-19T13:49:18.639Z,9.90
2018-12-19T13:51:45.145Z,9.90
2018-12-19T13:54:11.662Z,9.90
2018-12-19T13:56:38.140Z,9.90
2018-12-19T13:59:05.241Z,10.00
2018-12-19T14:01:31.682Z,9.90
2018-12-19T14:03:58.177Z,9.90
2018-12-19T14:13:46.110Z,9.90
2018-12-19T14:16:12.533Z,9.90
2018-12-19T14:18:38.997Z,9.90
2018-12-19T14:21:05.539Z,9.80
2018-12-19T14:23:32.121Z,9.90
2018-12-19T14:25:59.165Z,9.90
2018-12-19T14:28:25.822Z,9.90
2018-12-19T14:30:52.399Z,9.80
2018-12-19T14:33:18.790Z,9.80
2018-12-19T14:35:45.439Z,9.80
2018-12-19T14:38:12.081Z,9.80
2018-12-19T14:40:38.673Z,9.90
2018-12-19T14:43:05.458Z,9.80
2018-12-19T14:45:32.008Z,9.80
2018-12-19T14:50:25.385Z,9.80
2018-12-19T14:52:51.860Z,9.80
2018-12-19T14:55:18.325Z,9.70
2018-12-19T14:57:44.741Z,9.70
2018-12-19T15:07:32.225Z,9.70
2018-12-19T15:09:58.719Z,9.70
2018-12-19T15:12:25.934Z,9.60
2018-12-19T15:14:52.752Z,9.60
2018-12-19T15:17:19.203Z,9.50
2018-12-19T15:19:45.662Z,9.50
2018-12-19T15:22:12.131Z,9.50
2018-12-19T15:29:34.219Z,9.50
2018-12-19T15:32:00.767Z,9.50
2018-12-19T15:34:27.362Z,9.50
2018-12-19T15:36:53.861Z,9.50
2018-12-19T15:39:20.336Z,9.40
2018-12-19T15:41:46.915Z,9.50
2018-12-19T15:44:13.519Z,9.50
2018-12-19T15:46:39.999Z,9.50
2018-12-19T15:49:06.480Z,9.50
2018-12-19T15:54:00.145Z,9.60
2018-12-19T15:56:26.711Z,9.50
2018-12-19T16:01:20.053Z,9.60
2018-12-19T16:03:46.492Z,9.60
2018-12-19T16:06:13.047Z,9.70
2018-12-19T16:08:39.490Z,9.60
2018-12-19T16:11:06.002Z,9.60
2018-12-19T16:13:32.796Z,9.60
2018-12-19T16:15:59.578Z,9.60
2018-12-19T16:18:27.147Z,9.60
2018-12-19T16:20:53.707Z,9.60
2018-12-19T16:25:46.985Z,9.60
2018-12-19T16:28:13.460Z,9.60
2018-12-19T16:30:40.041Z,9.50
2018-12-19T16:33:06.559Z,9.50
2018-12-19T16:35:33.366Z,9.50
2018-12-19T16:40:27.593Z,9.50
2018-12-19T16:42:54.069Z,9.50
2018-12-19T16:45:20.574Z,9.50
2018-12-19T16:47:47.063Z,9.50
2018-12-19T16:50:15.542Z,9.50
2018-12-19T16:52:42.041Z,9.50
2018-12-19T16:55:08.537Z,9.50
2018-12-19T16:57:35.255Z,9.50
2018-12-19T17:00:01.738Z,9.50
2018-12-19T17:02:28.241Z,9.50
2018-12-19T17:04:54.776Z,9.60
2018-12-19T17:09:48.193Z,9.50
2018-12-19T17:12:14.989Z,9.50
2018-12-19T17:14:41.544Z,9.50
2018-12-19T17:19:35.732Z,9.50
2018-12-19T17:24:35.076Z,9.50
2018-12-19T17:27:01.484Z,9.40
2018-12-19T17:31:54.858Z,9.40
2018-12-19T17:36:48.465Z,9.40
2018-12-19T17:39:15.093Z,9.40
2018-12-19T17:41:41.755Z,9.40
2018-12-19T17:44:08.380Z,9.40
2018-12-19T17:46:34.790Z,9.40
2018-12-19T17:49:01.445Z,9.30
2018-12-19T17:53:54.984Z,9.20
2018-12-19T17:56:21.397Z,9.20
2018-12-19T17:58:47.866Z,9.20
2018-12-19T18:01:14.432Z,9.20
2018-12-19T18:03:40.867Z,9.20
2018-12-19T18:06:08.224Z,9.10
2018-12-19T18:08:34.730Z,9.10
2018-12-19T18:11:01.178Z,9.10
2018-12-19T18:13:28.003Z,9.10
2018-12-19T18:15:54.444Z,9.20
2018-12-19T18:20:48.016Z,9.20
2018-12-19T18:25:41.302Z,9.30
2018-12-19T18:28:07.803Z,9.30
2018-12-19T18:30:34.313Z,9.30
2018-12-19T18:33:00.800Z,9.20
2018-12-19T18:35:27.258Z,9.20
2018-12-19T18:37:53.767Z,9.20
2018-12-19T18:40:20.206Z,9.20
2018-12-19T18:42:46.715Z,9.20
2018-12-19T18:47:40.012Z,9.20
2018-12-19T18:50:06.890Z,9.20
2018-12-19T18:52:33.459Z,9.20
2018-12-19T18:57:26.758Z,9.10
2018-12-19T18:59:54.286Z,9.10
2018-12-19T19:02:20.859Z,9.10
2018-12-19T19:04:47.444Z,9.10
2018-12-19T19:07:14.038Z,9.00
2018-12-19T19:09:40.664Z,9.00
2018-12-19T19:12:07.117Z,9.00
2018-12-19T19:14:33.560Z,9.00
2018-12-19T19:19:26.838Z,8.90
2018-12-19T19:21:53.769Z,8.90
2018-12-19T19:26:48.886Z,8.60
2018-12-19T19:29:15.549Z,8.50
2018-12-19T19:31:42.217Z,8.40
2018-12-19T19:34:08.701Z,8.40
2018-12-19T19:39:02.623Z,8.20
2018-12-19T19:43:56.745Z,8.10
2018-12-19T19:46:23.307Z,8.10
2018-12-19T19:51:17.142Z,7.90
2018-12-19T19:53:43.874Z,7.90
2018-12-19T19:58:37.966Z,7.80
2018-12-19T20:01:04.513Z,7.70
2018-12-19T20:03:30.952Z,7.60
2018-12-19T20:05:58.514Z,7.60
2018-12-19T20:08:25.247Z,7.60
2018-12-19T20:10:51.703Z,7.60
2018-12-19T20:13:18.246Z,7.70
2018-12-19T20:15:44.797Z,7.70
2018-12-19T20:20:38.410Z,7.60
2018-12-19T20:30:26.362Z,7.40
2018-12-19T20:32:52.915Z,7.30
2018-12-19T20:35:19.748Z,7.30
2018-12-19T20:37:46.224Z,7.30
2018-12-19T20:40:12.815Z,7.20
2018-12-19T20:42:39.282Z,7.10
2018-12-19T20:47:32.611Z,6.90
2018-12-19T20:49:59.187Z,6.80
2018-12-19T20:54:52.675Z,6.70
2018-12-19T20:57:19.179Z,6.70
2018-12-19T20:59:45.682Z,6.70
2018-12-19T21:04:39.195Z,6.80
2018-12-19T21:14:26.187Z,7.10
2018-12-19T21:16:58.720Z,7.20
2018-12-19T21:19:25.260Z,7.30
2018-12-19T21:21:51.815Z,7.40
2018-12-19T21:24:18.377Z,7.40
2018-12-19T21:26:45.044Z,7.40
2018-12-19T21:34:05.758Z,7.50
2018-12-19T21:36:32.286Z,7.60
2018-12-19T21:38:59.099Z,7.50
2018-12-19T21:41:25.758Z,7.40
2018-12-19T21:43:53.729Z,7.40
2018-12-19T21:48:47.781Z,7.30
2018-12-19T21:51:14.610Z,7.30
2018-12-19T21:53:41.286Z,7.20
2018-12-19T21:56:07.869Z,7.20
2018-12-19T21:58:34.621Z,7.10
2018-12-19T22:03:29.251Z,7.30
2018-12-19T22:05:55.914Z,7.30
2018-12-19T22:08:22.415Z,7.30
2018-12-19T22:10:48.880Z,7.40
2018-12-19T22:13:15.554Z,7.40
2018-12-19T22:15:42.150Z,7.40
2018-12-19T22:18:14.747Z,7.50
2018-12-19T22:23:09.053Z,7.50
2018-12-19T22:25:35.767Z,7.50
2018-12-19T22:28:02.591Z,7.50
2018-12-19T22:30:29.285Z,7.60
2018-12-19T22:32:57.044Z,7.60
2018-12-19T22:35:23.709Z,7.60
2018-12-19T22:37:50.218Z,7.60
2018-12-19T22:40:16.833Z,7.60
2018-12-19T22:42:43.433Z,7.60
2018-12-19T22:47:36.871Z,7.40
2018-12-19T22:50:04.809Z,7.30
2018-12-19T22:52:31.359Z,7.30
2018-12-19T22:54:57.918Z,7.20
2018-12-19T22:57:24.564Z,7.20
2018-12-19T22:59:51.157Z,7.20
2018-12-19T23:04:50.805Z,7.10
2018-12-19T23:07:17.440Z,7.10
2018-12-19T23:09:44.427Z,7.10
2018-12-19T23:12:11.525Z,7.20
2018-12-19T23:14:39.711Z,7.20
2018-12-19T23:20:09.100Z,7.20
2018-12-19T23:22:35.710Z,7.20
2018-12-19T23:29:58.570Z,7.00
2018-12-19T23:34:55.184Z,6.90
2018-12-19T23:39:48.700Z,6.80
2018-12-19T23:42:16.361Z,6.70
2018-12-19T23:44:42.927Z,6.70
2018-12-19T23:47:09.418Z,6.60
2018-12-19T23:49:35.940Z,6.60
2018-12-19T23:52:02.784Z,6.60
2018-12-19T23:54:29.585Z,6.60
2018-12-19T23:56:57.653Z,6.60
